Time;durP1;ratioP1;P1;durP2;ratioP2;P2;SDS_P1;SDS_P2;PMS_P1;PMS_P2;Temp;Humidity;BMP_temperature;BMP_pressure;BME280_temperature;BME280_humidity;BME280_pressure;Samples;Min_cycle;Max_cycle;Signal;HPM_P1;HPM_P2
2021/09/30 00:01:06;;;;;;;3.42;1.38;;;;;;;11.02;99.68;101143.91;6395794;23;20001;-79
2021/09/30 00:03:37;;;;;;;3.65;1.30;;;;;;;11.07;98.80;101138.50;6396112;23;20433;-79
2021/09/30 00:06:07;;;;;;;7.32;1.70;;;;;;;10.97;98.90;101145.78;6395445;23;20376;-79
2021/09/30 00:08:37;;;;;;;5.28;1.63;;;;;;;11.08;98.15;101140.19;6395717;23;20005;-79
2021/09/30 00:11:13;;;;;;;6.20;1.50;;;;;;;11.07;99.07;101146.34;6408471;23;19993;-79
2021/09/30 00:13:48;;;;;;;6.00;1.75;;;;;;;10.94;99.76;101145.88;6407754;23;20001;-79
2021/09/30 00:16:30;;;;;;;;;;;;;;;11.13;98.75;101140.06;6408695;23;19997;-79
2021/09/30 00:35:56;;;;;;;3.35;1.05;;;;;;;10.97;99.46;101154.50;6406369;23;20009;-79
2021/09/30 00:41:24;;;;;;;3.03;1.08;;;;;;;10.91;99.36;101162.50;6406163;23;20000;-79
2021/09/30 00:49:26;;;;;;;4.05;1.40;;;;;;;10.87;100.00;101170.47;6406120;23;20059;-79
2021/09/30 02:23:42;;;;;;;3.58;1.10;;;;;;;10.91;97.53;101234.88;6393140;23;20496;-79
2021/09/30 03:00:25;;;;;;;4.45;1.40;;;;;;;11.00;96.90;101252.94;6407340;23;20011;-79
2021/09/30 03:03:00;;;;;;;3.88;1.30;;;;;;;10.98;98.62;101252.09;6395134;23;20540;-79
2021/09/30 03:05:32;;;;;;;2.65;1.00;;;;;;;10.93;98.73;101262.72;6394842;23;20004;-79
2021/09/30 03:08:02;;;;;;;6.05;1.40;;;;;;;10.94;98.87;101256.56;6408034;23;20485;-79
2021/09/30 03:10:34;;;;;;;2.13;0.93;;;;;;;10.81;98.37;101262.13;6394553;23;20075;-79
2021/09/30 03:13:05;;;;;;;3.97;1.20;;;;;;;10.93;97.54;101265.31;6407153;23;20104;-79
2021/09/30 03:15:42;;;;;;;4.85;1.30;;;;;;;11.02;96.33;101270.28;6406888;23;20437;-79
2021/09/30 03:18:26;;;;;;;4.53;1.30;;;;;;;10.99;96.52;101266.94;6407748;23;20357;-79
2021/09/30 03:23:32;;;;;;;2.05;0.77;;;;;;;11.07;96.71;101268.44;6407833;23;20020;-79
2021/09/30 03:26:04;;;;;;;3.25;1.10;;;;;;;10.90;97.45;101268.03;6397552;23;20079;-79
2021/09/30 03:28:35;;;;;;;2.70;0.88;;;;;;;10.76;97.19;101271.88;6396530;23;20008;-80
2021/09/30 03:31:06;;;;;;;2.40;0.75;;;;;;;10.85;97.59;101282.09;6408631;23;20051;-79
2021/09/30 03:33:37;;;;;;;5.30;1.02;;;;;;;10.82;98.51;101290.03;6395068;23;20456;-80
2021/09/30 03:36:07;;;;;;;1.92;0.73;;;;;;;10.89;97.75;101283.75;6407489;23;20453;-79
2021/09/30 03:38:38;;;;;;;5.28;1.42;;;;;;;10.71;98.66;101289.44;6394079;23;20001;-79
2021/09/30 03:41:08;;;;;;;4.50;0.98;;;;;;;10.71;97.99;101290.28;6406923;23;20005;-79
2021/09/30 03:43:39;;;;;;;8.00;1.50;;;;;;;10.75;98.03;101288.44;6406515;23;20036;-79
2021/09/30 03:46:10;;;;;;;6.28;1.60;;;;;;;10.80;96.66;101291.81;6407204;23;20001;-80
2021/09/30 03:48:40;;;;;;;2.90;1.15;;;;;;;10.84;97.41;101299.53;6407292;23;20329;-79
2021/09/30 03:51:15;;;;;;;3.63;0.93;;;;;;;10.79;98.66;101303.16;6394508;23;20001;-79
2021/09/30 03:54:01;;;;;;;2.30;1.00;;;;;;;10.74;98.65;101305.03;6406909;23;20001;-79
2021/09/30 03:56:40;;;;;;;2.70;1.10;;;;;;;10.65;99.99;101310.50;6406615;23;20009;-79
2021/09/30 03:59:20;;;;;;;4.30;1.02;;;;;;;10.67;98.64;101314.78;6394607;23;20009;-78
2021/09/30 04:01:56;;;;;;;3.55;1.20;;;;;;;10.61;99.24;101309.72;6405905;23;20012;-79
2021/09/30 04:04:29;;;;;;;4.43;1.02;;;;;;;10.54;99.03;101317.72;6404523;23;20044;-79
2021/09/30 04:07:05;;;;;;;3.28;1.05;;;;;;;10.60;99.99;101328.03;6395486;23;20159;-79
2021/09/30 04:09:36;;;;;;;;;;;;;;;10.56;99.77;101323.78;6394881;23;20055;-79
2021/09/30 04:12:10;;;;;;;4.50;1.40;;;;;;;10.52;100.00;101322.13;6419588;23;19904;-79
2021/09/30 04:14:41;;;;;;;3.38;1.40;;;;;;;10.56;99.37;101329.00;6393346;23;19997;-79
2021/09/30 04:17:11;;;;;;;3.83;1.20;;;;;;;10.60;98.96;101334.13;6406793;23;20476;-79
2021/09/30 04:19:41;;;;;;;4.05;1.30;;;;;;;10.58;99.24;101335.06;6394256;23;20361;-79
2021/09/30 04:22:12;;;;;;;4.25;1.35;;;;;;;10.52;99.62;101335.22;6406053;23;20008;-79
2021/09/30 04:24:44;;;;;;;4.22;1.30;;;;;;;10.47;99.37;101343.16;6406797;23;20019;-79
2021/09/30 04:27:16;;;;;;;2.72;1.10;;;;;;;10.44;99.91;101340.59;6406811;23;20055;-79
2021/09/30 04:29:46;;;;;;;3.58;1.25;;;;;;;10.31;100.00;101341.78;6395023;23;20000;-79
2021/09/30 04:32:17;;;;;;;5.78;1.27;;;;;;;10.42;98.76;101345.00;6394116;23;20013;-79
2021/09/30 04:34:47;;;;;;;3.53;1.10;;;;;;;10.48;100.00;101351.84;6407924;23;20076;-80
2021/09/30 04:37:17;;;;;;;3.30;0.93;;;;;;;10.52;99.10;101349.13;6406527;23;20004;-80
2021/09/30 04:39:48;;;;;;;2.95;0.80;;;;;;;10.39;99.08;101355.53;6405695;23;20067;-79
2021/09/30 04:42:18;;;;;;;4.65;1.13;;;;;;;10.19;100.00;101355.09;6394783;23;20001;-80
2021/09/30 04:44:48;;;;;;;2.10;1.00;;;;;;;10.29;99.82;101347.91;6394266;23;20012;-79
2021/09/30 04:47:19;;;;;;;5.32;1.08;;;;;;;10.20;100.00;101351.59;6407057;23;20582;-79
2021/09/30 04:49:49;;;;;;;5.15;1.40;;;;;;;10.13;100.00;101362.22;6394558;23;20005;-79
2021/09/30 04:52:20;;;;;;;4.13;1.00;;;;;;;10.09;100.00;101358.81;6393760;23;20353;-79
2021/09/30 04:54:50;;;;;;;3.40;1.10;;;;;;;10.13;100.00;101370.06;6405997;23;20012;-80
2021/09/30 04:57:20;;;;;;;2.42;0.90;;;;;;;10.21;100.00;101375.97;6394014;23;20009;-80
2021/09/30 04:59:51;;;;;;;2.42;1.20;;;;;;;9.99;100.00;101372.06;6405408;23;20005;-80
2021/09/30 05:02:21;;;;;;;3.95;1.17;;;;;;;10.14;100.00;101375.22;6393527;23;20000;-80
2021/09/30 05:04:52;;;;;;;2.83;1.02;;;;;;;10.11;100.00;101374.44;6393386;23;20067;-80
2021/09/30 05:07:22;;;;;;;3.47;1.20;;;;;;;10.08;100.00;101380.59;6393681;23;20427;-80
2021/09/30 05:09:53;;;;;;;3.38;1.30;;;;;;;9.98;100.00;101386.84;6405209;23;20007;-80
2021/09/30 05:12:24;;;;;;;2.78;1.20;;;;;;;10.06;100.00;101394.56;6393551;23;20001;-80
2021/09/30 05:14:55;;;;;;;2.03;0.90;;;;;;;10.09;100.00;101391.88;6406000;23;20042;-80
2021/09/30 05:17:25;;;;;;;3.03;1.02;;;;;;;9.89;100.00;101388.78;6394298;23;20440;-80
2021/09/30 05:19:55;;;;;;;2.92;1.00;;;;;;;9.93;100.00;101390.44;6392417;23;20133;-80
2021/09/30 05:22:26;;;;;;;3.83;1.02;;;;;;;9.87;100.00;101401.00;6404706;23;20011;-80
2021/09/30 05:24:56;;;;;;;2.63;1.13;;;;;;;9.77;100.00;101396.84;6405491;23;19997;-80
2021/09/30 05:27:26;;;;;;;1.85;1.10;;;;;;;9.81;100.00;101395.91;6405949;23;20008;-80
2021/09/30 05:29:57;;;;;;;5.78;1.10;;;;;;;9.95;100.00;101405.19;6393904;23;20004;-80
2021/09/30 05:32:27;;;;;;;2.60;1.15;;;;;;;9.85;100.00;101398.41;6393458;23;20044;-81
2021/09/30 05:34:58;;;;;;;3.63;1.00;;;;;;;9.86;100.00;101404.53;6392513;23;20012;-79
2021/09/30 05:37:29;;;;;;;4.45;1.17;;;;;;;9.91;100.00;101410.50;6404330;23;20323;-79
2021/09/30 05:39:59;;;;;;;2.83;1.20;;;;;;;9.94;100.00;101411.31;6392453;23;20009;-80
2021/09/30 05:42:29;;;;;;;4.88;1.20;;;;;;;9.95;100.00;101412.16;6393790;23;20047;-80
2021/09/30 05:45:06;;;;;;;4.05;1.30;;;;;;;9.97;100.00;101408.63;6404760;23;20273;-80
2021/09/30 05:47:36;;;;;;;4.70;1.33;;;;;;;9.90;100.00;101406.16;6393008;23;20005;-79
2021/09/30 05:50:07;;;;;;;3.38;1.38;;;;;;;9.75;100.00;101407.34;6405028;23;20003;-80
2021/09/30 05:52:38;;;;;;;4.07;1.33;;;;;;;9.84;100.00;101406.31;6394034;23;20005;-80
2021/09/30 05:55:09;;;;;;;2.28;1.33;;;;;;;9.83;100.00;101409.81;6405971;23;20444;-79
2021/09/30 05:57:42;;;;;;;3.55;1.60;;;;;;;9.88;100.00;101413.19;6393348;23;20001;-79
2021/09/30 06:00:28;;;;;;;3.55;1.50;;;;;;;9.80;100.00;101415.09;6404882;23;20005;-80
2021/09/30 06:09:26;;;;;;;2.97;1.33;;;;;;;10.08;100.00;101414.53;6404506;23;20537;-80
2021/09/30 06:11:59;;;;;;;4.45;1.20;;;;;;;10.11;100.00;101413.59;6394716;23;20075;-80
2021/09/30 06:14:32;;;;;;;4.07;1.20;;;;;;;10.14;100.00;101421.41;6402887;23;20071;-81
2021/09/30 06:17:03;;;;;;;3.25;1.40;;;;;;;10.30;100.00;101412.34;6404709;23;20005;-80
2021/09/30 06:19:34;;;;;;;5.10;2.20;;;;;;;10.31;100.00;101419.31;6405281;23;20029;-81
2021/09/30 06:22:06;;;;;;;3.92;1.30;;;;;;;10.17;100.00;101424.78;6406432;23;20004;-80
2021/09/30 06:24:37;;;;;;;3.30;1.10;;;;;;;10.32;100.00;101426.25;6407018;23;20084;-80
2021/09/30 06:27:08;;;;;;;4.50;1.42;;;;;;;10.41;100.00;101428.66;6397639;23;20040;-80
2021/09/30 06:29:38;;;;;;;4.00;1.25;;;;;;;10.46;99.96;101426.78;6408727;23;20000;-80
2021/09/30 06:32:08;;;;;;;5.10;1.40;;;;;;;10.58;99.28;101423.91;6409640;23;20015;-81
2021/09/30 06:34:41;;;;;;;2.67;1.30;;;;;;;10.59;99.64;101425.63;6398230;23;20005;-80
2021/09/30 06:37:11;;;;;;;3.78;1.40;;;;;;;10.56;100.00;101430.94;6409825;23;20014;-80
2021/09/30 06:39:41;;;;;;;2.90;1.33;;;;;;;10.70;99.07;101434.13;6396745;23;20044;-81
2021/09/30 06:42:12;;;;;;;2.80;1.27;;;;;;;10.68;99.28;101436.75;6409778;23;20177;-80
2021/09/30 06:44:42;;;;;;;2.65;1.27;;;;;;;10.85;98.17;101444.22;6409296;23;20071;-81
2021/09/30 06:47:13;;;;;;;3.10;1.40;;;;;;;10.87;98.23;101439.81;6396447;23;20333;-80
2021/09/30 06:49:43;;;;;;;4.00;1.40;;;;;;;11.08;97.47;101434.97;6405881;23;20361;-79
2021/09/30 06:52:14;;;;;;;3.90;1.33;;;;;;;10.93;99.37;101443.16;6395543;23;20008;-80
2021/09/30 06:54:44;;;;;;;4.13;1.35;;;;;;;10.96;98.53;101437.84;6395293;23;19997;-80
2021/09/30 06:57:14;;;;;;;4.90;1.73;;;;;;;11.03;98.31;101448.13;6406804;23;20034;-80
2021/09/30 06:59:46;;;;;;;4.47;1.40;;;;;;;11.28;98.53;101448.41;6406249;23;20359;-80
2021/09/30 07:02:18;;;;;;;3.35;1.40;;;;;;;11.40;97.07;101451.59;6406448;23;20232;-80
2021/09/30 07:04:49;;;;;;;3.58;1.20;;;;;;;11.36;96.44;101449.94;6395298;23;20436;-80
2021/09/30 07:07:19;;;;;;;3.08;1.10;;;;;;;11.33;96.41;101455.25;6406199;23;20028;-80
2021/09/30 07:09:49;;;;;;;5.40;1.58;;;;;;;11.52;97.44;101453.03;6394932;23;20001;-80
2021/09/30 07:12:20;;;;;;;3.20;1.20;;;;;;;11.54;95.64;101449.47;6407518;23;20001;-80
2021/09/30 07:14:50;;;;;;;4.30;1.50;;;;;;;12.05;93.46;101448.13;6405277;23;20028;-80
2021/09/30 07:17:22;;;;;;;3.30;1.33;;;;;;;12.88;91.57;101451.78;6394756;23;20009;-80
2021/09/30 07:19:53;;;;;;;7.63;1.70;;;;;;;14.01;83.91;101464.59;6394265;23;20009;-80
2021/09/30 07:22:25;;;;;;;4.97;1.83;;;;;;;15.08;79.08;101455.25;6406397;23;20011;-80
2021/09/30 07:24:55;;;;;;;5.60;1.88;;;;;;;15.96;76.35;101455.03;6406328;23;20001;-80
2021/09/30 07:27:25;;;;;;;4.15;1.40;;;;;;;16.53;72.43;101445.41;6394301;23;20032;-80
2021/09/30 07:29:56;;;;;;;5.80;1.63;;;;;;;16.68;72.76;101454.41;6407210;23;20000;-81
2021/09/30 07:32:26;;;;;;;4.50;1.65;;;;;;;16.98;70.21;101438.00;6407606;23;20008;-81
2021/09/30 07:34:56;;;;;;;4.50;1.25;;;;;;;18.43;67.50;101451.66;6393381;23;20001;-81
2021/09/30 07:37:27;;;;;;;3.47;1.17;;;;;;;18.08;68.86;101457.94;6394118;23;20028;-81
2021/09/30 07:39:57;;;;;;;3.95;1.23;;;;;;;18.87;66.03;101450.94;6406677;23;20041;-80
2021/09/30 07:42:27;;;;;;;5.72;1.60;;;;;;;17.93;66.59;101455.19;6405943;23;20429;-80
2021/09/30 07:44:58;;;;;;;4.65;1.30;;;;;;;18.06;68.93;101456.28;6393103;23;20088;-80
2021/09/30 07:47:28;;;;;;;4.60;1.40;;;;;;;18.96;65.07;101454.84;6406590;23;20017;-80
2021/09/30 07:49:58;;;;;;;5.17;1.30;;;;;;;17.79;67.83;101457.72;6394342;23;20008;-80
2021/09/30 07:52:28;;;;;;;3.28;1.27;;;;;;;18.51;67.42;101462.66;6394520;23;20294;-80
2021/09/30 07:55:02;;;;;;;5.88;1.65;;;;;;;18.45;68.35;101467.44;6406846;23;20430;-81
2021/09/30 07:57:32;;;;;;;7.88;2.00;;;;;;;18.59;66.60;101475.50;6405195;23;20071;-81
2021/09/30 08:00:05;;;;;;;8.75;2.55;;;;;;;18.95;65.45;101474.34;6406647;23;20028;-80
2021/09/30 08:02:35;;;;;;;5.90;2.00;;;;;;;18.45;67.37;101478.91;6405210;23;20015;-80
2021/09/30 08:05:07;;;;;;;5.53;2.05;;;;;;;19.25;64.41;101470.03;6406488;23;20005;-81
2021/09/30 08:07:37;;;;;;;4.53;1.75;;;;;;;18.76;66.38;101473.66;6406649;23;20459;-81
2021/09/30 08:10:08;;;;;;;7.13;1.75;;;;;;;19.10;64.76;101478.81;6405642;23;19997;-80
2021/09/30 08:12:38;;;;;;;5.55;1.70;;;;;;;18.50;66.68;101476.84;6406179;23;20397;-80
2021/09/30 08:15:09;;;;;;;4.90;1.60;;;;;;;17.83;67.70;101470.69;6394403;23;19997;-80
2021/09/30 08:17:39;;;;;;;5.70;1.50;;;;;;;18.36;66.65;101483.81;6393021;23;20008;-80
2021/09/30 08:20:10;;;;;;;4.90;1.20;;;;;;;19.27;65.59;101487.53;6393043;23;19996;-81
2021/09/30 08:22:41;;;;;;;4.63;1.35;;;;;;;18.86;66.36;101491.63;6404847;23;20025;-80
2021/09/30 08:25:11;;;;;;;6.88;1.60;;;;;;;19.08;65.42;101478.03;6406193;23;20009;-80
2021/09/30 08:27:42;;;;;;;7.72;1.63;;;;;;;19.12;64.69;101476.91;6405588;23;19997;-81
2021/09/30 08:30:12;;;;;;;2.95;1.20;;;;;;;19.67;63.45;101486.09;6405163;23;20008;-80
2021/09/30 08:32:43;;;;;;;5.10;1.27;;;;;;;20.53;62.71;101484.38;6393672;23;20345;-80
2021/09/30 08:35:14;;;;;;;6.18;1.23;;;;;;;18.65;66.10;101496.38;6404849;23;20001;-80
2021/09/30 08:37:44;;;;;;;4.15;1.10;;;;;;;19.61;63.21;101491.78;6405617;23;20264;-80
2021/09/30 08:40:15;;;;;;;4.30;1.27;;;;;;;19.27;66.08;101495.47;6392199;23;20007;-80
2021/09/30 08:42:47;;;;;;;5.95;1.60;;;;;;;20.36;62.70;101498.72;6404797;23;20001;-80
2021/09/30 08:45:22;;;;;;;4.85;1.20;;;;;;;19.16;64.38;101505.84;6405311;23;20015;-80
2021/09/30 08:48:03;;;;;;;6.80;1.50;;;;;;;20.22;64.07;101500.47;6405195;23;19997;-80
2021/09/30 08:50:38;;;;;;;3.97;1.00;;;;;;;18.63;65.21;101504.38;6403887;23;19997;-80
2021/09/30 08:53:10;;;;;;;3.88;1.35;;;;;;;19.52;64.93;101501.09;6393266;23;20009;-80
2021/09/30 08:55:41;;;;;;;4.20;1.10;;;;;;;18.99;65.96;101511.19;6405960;23;20559;-80
2021/09/30 08:58:11;;;;;;;4.22;1.00;;;;;;;19.29;64.26;101506.84;6394639;23;20092;-79
2021/09/30 09:00:42;;;;;;;3.95;1.23;;;;;;;19.16;64.98;101516.44;6405322;23;20365;-80
2021/09/30 09:03:13;;;;;;;4.90;1.20;;;;;;;17.89;70.04;101514.50;6405720;23;20071;-80
2021/09/30 09:05:43;;;;;;;3.90;1.10;;;;;;;17.43;70.59;101522.97;6406262;23;20426;-79
2021/09/30 09:08:13;;;;;;;4.38;1.25;;;;;;;16.39;74.38;101529.63;6392918;23;19997;-80
2021/09/30 09:10:44;;;;;;;3.47;1.08;;;;;;;16.27;76.55;101527.53;6404161;23;20031;-79
2021/09/30 09:13:17;;;;;;;7.82;1.38;;;;;;;16.21;74.95;101522.50;6405783;23;20011;-79
2021/09/30 09:15:57;;;;;;;5.78;1.00;;;;;;;16.16;75.79;101537.66;6392348;23;20009;-80
2021/09/30 09:18:35;;;;;;;3.92;0.95;;;;;;;16.45;76.06;101531.16;6392539;23;20015;-79
2021/09/30 09:21:11;;;;;;;3.75;1.20;;;;;;;16.26;76.88;101531.09;6393444;23;19997;-79
2021/09/30 09:23:59;;;;;;;6.35;1.20;;;;;;;16.53;76.03;101537.81;6403537;23;20322;-79
2021/09/30 09:26:32;;;;;;;4.38;1.50;;;;;;;16.64;75.04;101522.34;6404009;23;20024;-79
2021/09/30 09:29:05;;;;;;;4.55;1.10;;;;;;;16.48;75.52;101526.59;6404371;23;20024;-79
2021/09/30 09:31:39;;;;;;;3.25;0.82;;;;;;;16.55;76.13;101524.53;6352807;23;1045938;-79
2021/09/30 09:34:17;;;;;;;6.75;0.90;;;;;;;16.33;75.90;101518.44;6393703;23;20457;-79
2021/09/30 09:36:50;;;;;;;4.15;1.00;;;;;;;15.80;76.32;101541.84;6406172;23;20035;-80
2021/09/30 09:39:35;;;;;;;3.33;0.90;;;;;;;15.65;76.93;101538.97;6405022;23;20051;-79
2021/09/30 09:42:14;;;;;;;3.08;0.82;;;;;;;15.91;76.59;101536.97;6393073;23;20012;-80
2021/09/30 09:45:05;;;;;;;3.08;0.88;;;;;;;16.02;76.95;101532.13;6404718;23;20257;-79
2021/09/30 09:47:38;;;;;;;4.65;0.80;;;;;;;16.00;76.31;101539.25;6405632;23;20529;-79
2021/09/30 09:50:19;;;;;;;4.90;0.77;;;;;;;15.44;76.59;101543.34;6405468;23;20004;-79
2021/09/30 09:52:52;;;;;;;5.13;0.80;;;;;;;15.64;78.11;101546.03;6406330;23;20195;-79
2021/09/30 09:55:33;;;;;;;3.65;1.00;;;;;;;15.68;76.92;101552.06;6405069;23;20448;-80
2021/09/30 09:58:17;;;;;;;3.78;0.80;;;;;;;15.64;77.54;101551.31;6405447;23;20001;-79
2021/09/30 10:00:50;;;;;;;3.20;0.63;;;;;;;15.31;76.81;101542.13;6405208;23;20005;-80
2021/09/30 10:03:27;;;;;;;4.30;1.05;;;;;;;15.32;77.10;101535.94;6392642;23;20001;-79
2021/09/30 10:05:59;;;;;;;5.53;1.33;;;;;;;15.42;77.61;101526.75;6404568;23;20001;-80
2021/09/30 10:08:31;;;;;;;5.93;1.00;;;;;;;15.70;78.05;101544.94;6392986;23;20009;-80
2021/09/30 10:11:01;;;;;;;5.32;1.08;;;;;;;15.65;76.07;101537.22;6392726;23;20001;-79
2021/09/30 10:13:37;;;;;;;4.47;0.80;;;;;;;15.60;78.83;101547.09;6392079;23;20016;-79
2021/09/30 10:16:08;;;;;;;4.07;0.70;;;;;;;15.47;76.67;101547.63;6404224;23;20468;-79
2021/09/30 10:18:39;;;;;;;4.45;0.80;;;;;;;15.39;76.09;101539.19;6393334;23;20013;-79
2021/09/30 10:21:09;;;;;;;2.65;0.75;;;;;;;15.24;76.45;101534.50;6405262;23;20001;-80
2021/09/30 10:23:40;;;;;;;5.25;1.00;;;;;;;15.33;76.42;101537.66;6404323;23;20001;-79
2021/09/30 10:26:15;;;;;;;3.50;0.70;;;;;;;15.48;77.52;101529.13;6403858;23;20429;-79
2021/09/30 10:28:46;;;;;;;4.57;0.70;;;;;;;15.31;76.49;101525.44;6403889;23;20052;-79
2021/09/30 10:31:30;;;;;;;4.00;0.88;;;;;;;15.66;76.93;101532.78;6403686;23;20099;-79
2021/09/30 10:34:22;;;;;;;6.30;0.90;;;;;;;15.61;75.75;101535.63;6400041;23;20304;-79
2021/09/30 10:36:53;;;;;;;3.83;0.82;;;;;;;16.10;76.70;101524.75;6391478;23;20315;-80
2021/09/30 10:39:32;;;;;;;2.25;0.70;;;;;;;16.15;74.40;101522.75;6392151;23;20141;-80
2021/09/30 10:42:05;;;;;;;4.30;0.73;;;;;;;15.70;73.88;101529.97;6405230;23;20008;-80
2021/09/30 10:44:36;;;;;;;2.50;0.70;;;;;;;15.78;73.91;101529.66;6393600;23;20001;-80
2021/09/30 10:47:07;;;;;;;4.20;0.73;;;;;;;15.94;74.44;101536.00;6391748;23;20076;-80
2021/09/30 10:49:41;;;;;;;3.88;0.50;;;;;;;15.78;73.91;101537.56;6392026;23;19997;-80
2021/09/30 10:52:19;;;;;;;3.80;0.70;;;;;;;15.80;74.54;101536.59;6404212;23;20005;-80
2021/09/30 10:55:10;;;;;;;6.13;0.75;;;;;;;16.03;74.28;101530.34;6403775;23;19997;-80
2021/09/30 10:57:44;;;;;;;7.45;0.82;;;;;;;15.87;73.04;101543.31;6379428;23;20005;-81
2021/09/30 11:00:17;;;;;;;4.20;0.70;;;;;;;15.87;72.58;101537.19;6403852;23;20064;-80
2021/09/30 11:03:00;;;;;;;3.53;0.90;;;;;;;16.13;73.92;101540.44;6405249;23;20169;-80
2021/09/30 11:05:33;;;;;;;2.60;0.70;;;;;;;16.21;73.76;101540.13;6404812;23;20232;-79
2021/09/30 11:08:24;;;;;;;3.80;0.75;;;;;;;15.78;72.53;101548.09;6403090;23;20005;-80
2021/09/30 11:11:06;;;;;;;3.60;0.60;;;;;;;15.75;72.89;101542.97;6393327;23;20088;-80
2021/09/30 11:13:42;;;;;;;3.28;0.77;;;;;;;15.58;73.26;101533.13;6405772;23;20379;-80
2021/09/30 11:16:18;;;;;;;2.95;0.70;;;;;;;15.35;73.14;101548.97;6394117;23;20465;-80
2021/09/30 11:18:52;;;;;;;3.83;0.75;;;;;;;15.22;73.96;101542.44;6394301;23;20009;-80
2021/09/30 11:21:32;;;;;;;3.17;0.70;;;;;;;15.26;75.69;101538.78;6393778;23;20312;-80
2021/09/30 11:24:03;;;;;;;3.83;0.57;;;;;;;15.22;75.75;101542.44;6405825;23;20253;-80
2021/09/30 11:26:49;;;;;;;3.00;0.50;;;;;;;15.45;74.80;101544.19;6406063;23;20011;-80
2021/09/30 11:29:19;;;;;;;3.60;0.73;;;;;;;15.63;73.63;101540.81;6392775;23;20005;-80
2021/09/30 11:31:58;;;;;;;2.90;0.60;;;;;;;15.76;72.31;101534.13;6406222;23;20011;-79
2021/09/30 11:34:30;;;;;;;2.42;0.60;;;;;;;15.94;71.89;101539.50;6405626;23;20878;-80
2021/09/30 11:37:18;;;;;;;5.00;1.08;;;;;;;16.08;71.36;101534.47;6394085;23;20430;-80
2021/09/30 11:39:49;;;;;;;4.10;1.08;;;;;;;16.15;71.92;101537.72;6406031;23;20029;-80
2021/09/30 11:42:22;;;;;;;1.67;0.60;;;;;;;16.13;70.91;101527.25;6393336;23;20011;-80
2021/09/30 11:44:57;;;;;;;2.10;0.63;;;;;;;15.80;71.83;101535.72;6405899;23;20092;-80
2021/09/30 11:47:29;;;;;;;;;;;;;;;15.89;71.17;101541.47;6407171;23;19997;-80
2021/09/30 11:50:02;;;;;;;4.10;0.88;;;;;;;15.69;71.61;101540.59;6405302;23;19912;-80
2021/09/30 11:52:32;;;;;;;5.72;1.15;;;;;;;15.77;72.02;101531.44;6406105;23;20015;-80
2021/09/30 11:55:11;;;;;;;3.85;0.60;;;;;;;15.77;70.49;101530.56;6405490;23;20079;-80
2021/09/30 11:57:53;;;;;;;2.33;0.75;;;;;;;15.77;69.70;101538.47;6393820;23;20095;-81
2021/09/30 12:00:24;;;;;;;2.15;0.70;;;;;;;15.80;70.22;101539.22;6393317;23;20051;-80
2021/09/30 12:03:02;;;;;;;4.32;0.90;;;;;;;15.94;70.83;101538.63;6393960;23;20352;-80
2021/09/30 12:05:37;;;;;;;2.63;0.57;;;;;;;15.69;69.58;101533.53;6406757;23;20009;-80
2021/09/30 12:08:08;;;;;;;2.15;0.65;;;;;;;15.75;70.02;101535.94;6394472;23;20043;-80
2021/09/30 12:10:39;;;;;;;3.60;0.50;;;;;;;15.73;68.11;101537.75;6405059;23;19993;-79
2021/09/30 12:13:19;;;;;;;2.30;0.70;;;;;;;15.74;69.64;101536.81;6407322;23;20015;-80
2021/09/30 12:15:49;;;;;;;4.32;1.25;;;;;;;15.94;70.38;101550.06;6392770;23;20441;-80
2021/09/30 12:18:23;;;;;;;1.95;0.57;;;;;;;15.90;68.74;101539.69;6393398;23;20004;-80
2021/09/30 12:20:57;;;;;;;6.00;0.80;;;;;;;15.99;69.13;101542.81;6393263;23;20262;-80
2021/09/30 12:23:28;;;;;;;2.25;0.60;;;;;;;15.95;69.37;101541.22;6404872;23;20156;-80
2021/09/30 12:25:59;;;;;;;3.42;0.60;;;;;;;16.13;68.91;101534.28;6406724;23;20011;-79
2021/09/30 12:28:30;;;;;;;2.03;0.68;;;;;;;16.14;70.44;101530.72;6394977;23;20004;-80
2021/09/30 12:31:05;;;;;;;3.22;0.75;;;;;;;16.17;70.47;101533.22;6395512;23;20333;-80
2021/09/30 12:33:35;;;;;;;3.58;0.82;;;;;;;16.25;68.95;101539.88;6395501;23;20318;-80
2021/09/30 12:36:06;;;;;;;1.48;0.50;;;;;;;16.21;67.70;101537.47;6407986;23;20395;-79
2021/09/30 12:38:38;;;;;;;2.78;1.00;;;;;;;16.27;68.60;101530.16;6396499;23;20005;-80
2021/09/30 12:41:09;;;;;;;1.98;0.40;;;;;;;16.28;69.19;101541.56;6395799;23;20084;-80
2021/09/30 12:43:44;;;;;;;3.67;0.63;;;;;;;16.26;70.18;101544.28;6395582;23;20600;-80
2021/09/30 12:46:17;;;;;;;2.60;0.63;;;;;;;16.21;69.88;101542.75;6407315;23;20307;-80
2021/09/30 12:48:51;;;;;;;2.90;0.73;;;;;;;15.98;70.71;101538.44;6404485;23;20001;-79
2021/09/30 12:51:25;;;;;;;3.65;0.77;;;;;;;16.05;69.94;101547.81;6404724;23;20499;-79
2021/09/30 12:53:55;;;;;;;3.25;0.60;;;;;;;16.08;68.32;101537.13;6392979;23;19997;-79
2021/09/30 12:56:31;;;;;;;3.97;0.70;;;;;;;15.80;68.11;101547.13;6404730;23;20005;-79
2021/09/30 12:59:12;;;;;;;2.90;0.60;;;;;;;15.80;68.18;101541.84;6405218;23;20328;-79
2021/09/30 13:01:43;;;;;;;2.13;0.70;;;;;;;15.77;69.68;101542.00;6404459;23;19997;-79
2021/09/30 13:04:25;;;;;;;3.45;0.70;;;;;;;15.68;68.54;101545.00;6403690;23;20001;-79
2021/09/30 13:06:59;;;;;;;3.60;0.50;;;;;;;15.64;68.84;101546.03;6391153;23;19996;-79
2021/09/30 13:09:39;;;;;;;3.38;0.60;;;;;;;15.78;68.60;101541.06;6391583;23;20008;-79
2021/09/30 13:12:15;;;;;;;1.73;0.55;;;;;;;15.87;68.33;101538.03;6392411;23;20038;-79
2021/09/30 13:14:46;;;;;;;1.98;0.45;;;;;;;16.08;66.08;101534.47;6403409;23;20076;-78
2021/09/30 13:17:24;;;;;;;2.13;0.70;;;;;;;16.09;66.14;101532.72;6404743;23;20049;-78
2021/09/30 13:20:06;;;;;;;3.30;0.85;;;;;;;16.28;68.57;101529.22;6404145;23;20472;-79
2021/09/30 13:22:39;;;;;;;2.28;0.68;;;;;;;16.34;66.78;101526.31;6403011;23;20438;-79
2021/09/30 13:25:18;;;;;;;3.17;0.70;;;;;;;16.15;67.71;101527.16;6392418;23;20005;-79
2021/09/30 13:27:50;;;;;;;1.83;0.40;;;;;;;16.00;67.92;101523.41;6392258;23;20009;-79
2021/09/30 13:30:23;;;;;;;1.83;0.50;;;;;;;15.90;67.90;101537.06;6392163;23;20040;-79
2021/09/30 13:32:57;;;;;;;2.88;0.63;;;;;;;15.93;67.83;101527.25;6404336;23;20000;-79
2021/09/30 13:35:30;;;;;;;4.13;0.90;;;;;;;15.81;68.42;101527.75;6402718;23;20009;-79
2021/09/30 13:38:01;;;;;;;2.78;0.80;;;;;;;15.81;69.46;101533.03;6391435;23;20063;-79
2021/09/30 13:40:32;;;;;;;2.65;0.57;;;;;;;15.86;68.75;101531.03;6391315;23;20013;-79
2021/09/30 13:43:02;;;;;;;2.80;0.63;;;;;;;15.80;69.52;101526.03;6404693;23;20028;-79
2021/09/30 13:45:33;;;;;;;4.03;0.80;;;;;;;15.68;69.19;101515.16;6404979;23;20172;-79
2021/09/30 13:48:03;;;;;;;3.28;0.60;;;;;;;15.95;68.67;101520.13;6392472;23;20437;-79
2021/09/30 13:50:34;;;;;;;2.17;0.75;;;;;;;15.92;69.37;101515.00;6403410;23;20013;-79
2021/09/30 13:53:04;;;;;;;1.35;0.60;;;;;;;15.96;70.87;101513.94;6403728;23;20012;-79
2021/09/30 13:55:34;;;;;;;2.17;0.50;;;;;;;16.11;69.83;101513.28;6391817;23;20001;-79
2021/09/30 13:58:04;;;;;;;3.60;0.80;;;;;;;16.02;68.92;101505.75;6392215;23;20001;-79
2021/09/30 14:00:35;;;;;;;3.60;0.80;;;;;;;16.09;68.25;101503.72;6389753;23;20005;-79
2021/09/30 14:03:17;;;;;;;3.20;0.63;;;;;;;16.07;67.96;101505.56;6404217;23;20007;-79
2021/09/30 14:05:48;;;;;;;4.05;0.95;;;;;;;16.10;69.21;101503.66;6390569;23;20005;-79
2021/09/30 14:08:19;;;;;;;4.88;0.90;;;;;;;16.04;68.50;101495.16;6403700;23;20377;-79
2021/09/30 14:10:49;;;;;;;4.32;0.80;;;;;;;15.88;71.72;101500.19;6392846;23;19998;-79
2021/09/30 14:13:19;;;;;;;2.53;0.85;;;;;;;15.89;72.21;101503.72;6391721;23;20000;-79
2021/09/30 14:15:50;;;;;;;4.18;0.70;;;;;;;15.89;72.38;101494.00;6403807;23;20040;-79
2021/09/30 14:18:20;;;;;;;3.20;0.75;;;;;;;15.96;70.74;101503.38;6403414;23;20147;-79
2021/09/30 14:20:51;;;;;;;2.35;0.68;;;;;;;16.22;71.15;101502.25;6401484;23;20066;-79
2021/09/30 14:23:23;;;;;;;3.88;0.73;;;;;;;16.20;69.17;101494.41;6401827;23;20086;-79
2021/09/30 14:25:53;;;;;;;2.78;0.80;;;;;;;16.16;69.77;101498.09;6401179;23;20432;-79
2021/09/30 14:28:25;;;;;;;3.72;0.85;;;;;;;16.30;68.43;101487.81;6401107;23;20005;-79
2021/09/30 14:30:56;;;;;;;3.22;0.80;;;;;;;16.41;70.38;101493.47;6402399;23;20028;-79